Time;durP1;ratioP1;P1;durP2;ratioP2;P2;SDS_P1;SDS_P2;PMS_P1;PMS_P2;Temp;Humidity;BMP_temperature;BMP_pressure;BME280_temperature;BME280_humidity;BME280_pressure;Samples;Min_cycle;Max_cycle;Signal;HPM_P1;HPM_P2
2023/05/16 00:02:20;;;;;;;34.60;20.43;;;;;;;19.96;67.05;100070.84;5049549;28;20164;-64
2023/05/16 00:04:46;;;;;;;31.47;19.20;;;;;;;19.96;67.28;100065.91;5049854;28;20183;-65
2023/05/16 00:07:11;;;;;;;30.43;17.70;;;;;;;19.95;67.23;100064.28;5049528;28;20199;-64
2023/05/16 00:09:37;;;;;;;33.40;20.73;;;;;;;19.96;67.15;100057.31;5047861;28;20647;-64
2023/05/16 00:12:03;;;;;;;37.23;19.70;;;;;;;19.96;67.47;100065.13;5048975;28;20215;-65
2023/05/16 00:14:28;;;;;;;33.60;19.77;;;;;;;19.95;67.34;100069.19;5047417;28;20188;-64
2023/05/16 00:16:57;;;;;;;34.87;19.90;;;;;;;19.95;67.41;100070.00;5048698;28;20429;-64
2023/05/16 00:19:23;;;;;;;34.17;20.43;;;;;;;19.94;67.42;100059.78;5042987;28;20184;-65
2023/05/16 00:21:48;;;;;;;36.63;20.10;;;;;;;19.93;67.45;100072.47;4995234;28;20829;-65
2023/05/16 00:24:14;;;;;;;35.33;18.50;;;;;;;19.93;67.43;100066.75;5024664;28;20183;-64
2023/05/16 00:26:39;;;;;;;30.83;17.60;;;;;;;19.93;67.25;100065.91;5031698;28;20171;-64
2023/05/16 00:29:05;;;;;;;33.47;20.47;;;;;;;19.91;67.50;100059.75;5048331;28;20184;-65
2023/05/16 00:31:31;;;;;;;32.17;17.93;;;;;;;19.92;67.63;100067.94;5048446;28;20156;-65
2023/05/16 00:33:56;;;;;;;28.40;17.80;;;;;;;19.92;67.55;100064.25;5030230;28;20521;-64
2023/05/16 00:36:22;;;;;;;32.70;19.40;;;;;;;19.91;67.53;100074.88;5049504;28;20199;-65
2023/05/16 00:38:47;;;;;;;32.30;20.13;;;;;;;19.91;67.49;100066.28;5048496;28;20881;-64
2023/05/16 00:41:13;;;;;;;35.87;19.07;;;;;;;19.91;67.33;100074.09;5048642;28;20152;-65
2023/05/16 00:43:39;;;;;;;29.17;19.53;;;;;;;19.90;67.40;100073.25;5029949;28;20512;-64
2023/05/16 00:46:04;;;;;;;25.70;17.17;;;;;;;19.90;67.77;100067.50;5030954;28;20261;-64
2023/05/16 00:48:30;;;;;;;31.97;19.13;;;;;;;19.90;67.67;100067.50;5048833;28;20476;-64
2023/05/16 00:50:55;;;;;;;32.00;18.03;;;;;;;19.90;67.60;100073.25;5038310;28;20658;-64
2023/05/16 00:53:21;;;;;;;31.40;17.40;;;;;;;19.90;67.68;100067.50;5040160;28;20191;-65
2023/05/16 00:55:47;;;;;;;29.30;17.03;;;;;;;19.89;67.76;100068.75;5048310;28;20187;-64
2023/05/16 00:58:13;;;;;;;29.90;17.90;;;;;;;19.89;67.69;100065.88;5043973;28;20422;-64
2023/05/16 01:00:38;;;;;;;32.53;17.63;;;;;;;19.88;67.82;100064.22;5047295;28;20640;-64
2023/05/16 01:03:07;;;;;;;30.83;18.20;;;;;;;19.89;67.71;100065.88;5012656;28;20160;-64
2023/05/16 01:05:32;;;;;;;29.53;17.37;;;;;;;19.89;67.76;100059.31;5028661;28;20777;-64
2023/05/16 01:07:57;;;;;;;28.10;16.80;;;;;;;19.88;67.71;100063.41;5013978;28;20410;-64
2023/05/16 01:10:23;;;;;;;29.23;17.53;;;;;;;19.87;67.89;100064.63;5031591;28;20211;-64
2023/05/16 01:13:10;;;;;;;29.37;17.37;;;;;;;19.88;67.78;100069.13;5032381;28;20204;-64
2023/05/16 01:15:45;;;;;;;27.83;17.37;;;;;;;19.87;67.66;100067.50;5049056;28;20211;-64
2023/05/16 01:18:24;;;;;;;31.90;18.43;;;;;;;19.87;67.78;100062.56;5029755;28;20420;-64
2023/05/16 01:20:59;;;;;;;32.80;16.77;;;;;;;19.86;67.88;100066.66;5025220;28;20438;-64
2023/05/16 01:23:53;;;;;;;32.67;16.87;;;;;;;19.85;67.94;100056.41;5027767;28;20423;-64
2023/05/16 01:26:26;;;;;;;24.40;15.60;;;;;;;19.86;67.82;100066.66;5039005;28;20414;-64
2023/05/16 01:28:51;;;;;;;26.90;16.30;;;;;;;19.85;67.94;100064.19;5048595;28;20437;-64
2023/05/16 01:31:17;;;;;;;27.43;16.67;;;;;;;19.84;67.89;100059.69;5020782;28;21288;-64
2023/05/16 01:33:42;;;;;;;27.00;16.20;;;;;;;19.85;67.98;100059.28;5031904;28;20691;-64
2023/05/16 01:36:40;;;;;;;27.10;16.33;;;;;;;19.84;68.12;100057.66;5013792;28;20529;-64
2023/05/16 01:39:34;;;;;;;27.47;16.53;;;;;;;19.84;67.90;100057.66;5051415;28;20799;-64
2023/05/16 01:42:13;;;;;;;26.80;16.23;;;;;;;19.83;67.86;100058.88;5049033;28;20774;-64
2023/05/16 01:44:49;;;;;;;24.67;15.40;;;;;;;19.83;68.06;100060.91;5033531;28;20425;-64
2023/05/16 01:47:15;;;;;;;26.37;15.80;;;;;;;19.83;67.79;100058.88;5011786;28;20430;-64
2023/05/16 01:49:44;;;;;;;24.37;15.77;;;;;;;19.83;68.26;100061.72;5012460;28;20412;-64
2023/05/16 01:52:15;;;;;;;25.63;15.20;;;;;;;19.84;68.14;100056.81;5037942;28;21076;-64
2023/05/16 01:54:43;;;;;;;26.27;17.20;;;;;;;19.83;67.91;100063.75;5049914;28;21015;-64
2023/05/16 01:57:09;;;;;;;22.77;15.80;;;;;;;19.82;67.69;100062.94;5018108;28;20778;-64
2023/05/16 01:59:34;;;;;;;28.20;16.50;;;;;;;19.81;67.99;100064.16;5031885;28;20517;-64
2023/05/16 02:02:00;;;;;;;26.40;16.93;;;;;;;19.81;68.11;100064.16;5050805;28;20187;-64
2023/05/16 02:04:25;;;;;;;24.27;15.60;;;;;;;19.82;68.18;100065.78;5051601;28;20164;-64
2023/05/16 02:06:51;;;;;;;28.73;16.03;;;;;;;19.81;68.30;100069.88;5050749;28;20199;-64
2023/05/16 02:09:16;;;;;;;21.73;14.50;;;;;;;19.82;68.07;100070.72;5050855;28;20240;-64
2023/05/16 02:11:42;;;;;;;26.10;15.70;;;;;;;19.81;68.20;100071.94;5052741;28;20281;-64
2023/05/16 02:14:08;;;;;;;24.67;16.50;;;;;;;19.80;68.25;100076.84;5033793;28;20218;-64
2023/05/16 02:16:33;;;;;;;23.90;15.67;;;;;;;19.79;68.40;100072.31;5051102;28;20160;-64
2023/05/16 02:18:58;;;;;;;23.27;15.30;;;;;;;19.81;68.20;100074.81;5050018;28;20184;-64
2023/05/16 02:21:24;;;;;;;22.83;14.87;;;;;;;19.80;68.24;100068.25;5050948;28;20175;-64
2023/05/16 02:23:49;;;;;;;25.77;15.40;;;;;;;19.80;68.15;100073.97;5050470;28;20175;-64
2023/05/16 02:26:15;;;;;;;21.83;15.83;;;;;;;19.80;68.26;100079.69;5049482;28;20176;-64
2023/05/16 02:28:40;;;;;;;23.33;15.17;;;;;;;19.79;68.31;100071.50;5045672;28;20616;-64
2023/05/16 02:31:06;;;;;;;22.07;14.10;;;;;;;19.80;68.21;100068.25;5031617;28;20183;-64
2023/05/16 02:33:33;;;;;;;24.10;15.73;;;;;;;19.80;68.26;100078.88;5049325;28;20191;-64
2023/05/16 02:35:58;;;;;;;22.43;14.90;;;;;;;19.79;68.36;100071.50;5031817;28;20569;-64
2023/05/16 02:38:24;;;;;;;26.93;14.90;;;;;;;19.80;68.24;100076.00;5030269;28;20437;-64
2023/05/16 02:40:49;;;;;;;21.60;14.10;;;;;;;19.80;68.42;100071.09;5032139;28;20168;-64
2023/05/16 02:43:15;;;;;;;22.33;14.90;;;;;;;19.80;68.34;100084.59;5050299;28;20205;-64
2023/05/16 02:45:40;;;;;;;23.17;16.43;;;;;;;19.79;68.26;100075.19;5032539;28;20643;-64
2023/05/16 02:48:06;;;;;;;25.57;14.53;;;;;;;19.79;68.14;100078.06;5031199;28;20624;-64
2023/05/16 02:50:32;;;;;;;24.67;14.47;;;;;;;19.79;68.25;100077.22;5050043;28;20187;-64
2023/05/16 02:52:58;;;;;;;20.57;14.23;;;;;;;19.78;68.85;100079.28;5049195;28;20297;-64
2023/05/16 02:55:25;;;;;;;22.63;14.07;;;;;;;19.76;68.40;100067.38;5050208;28;20429;-64
2023/05/16 02:57:50;;;;;;;21.60;15.17;;;;;;;19.78;68.27;100075.59;5050058;28;20422;-65
2023/05/16 03:00:16;;;;;;;23.67;14.90;;;;;;;19.77;68.36;100086.22;5018427;28;20426;-64
2023/05/16 03:02:42;;;;;;;22.40;14.97;;;;;;;19.77;67.99;100080.47;5048825;28;20188;-65
2023/05/16 03:05:08;;;;;;;19.73;14.03;;;;;;;19.77;68.28;100085.41;5031766;28;20442;-64
2023/05/16 03:07:34;;;;;;;22.10;14.20;;;;;;;19.77;68.37;100079.66;5026314;28;20220;-64
2023/05/16 03:09:59;;;;;;;19.70;13.10;;;;;;;19.77;68.34;100089.06;5032060;28;20427;-64
2023/05/16 03:12:25;;;;;;;21.80;14.50;;;;;;;19.76;68.49;100084.56;5047509;28;20250;-64
2023/05/16 03:14:50;;;;;;;20.80;13.53;;;;;;;19.76;68.30;100090.28;5032268;28;20179;-64
2023/05/16 03:17:16;;;;;;;22.83;14.57;;;;;;;19.75;68.29;100085.78;5039522;28;20180;-64
2023/05/16 03:19:41;;;;;;;21.10;13.90;;;;;;;19.76;68.40;100095.22;5012761;28;20176;-65
2023/05/16 03:22:07;;;;;;;22.37;14.07;;;;;;;19.76;68.24;100087.44;5038289;28;20549;-64
2023/05/16 03:24:32;;;;;;;21.77;13.93;;;;;;;19.75;68.25;100094.38;5032486;28;20183;-64
2023/05/16 03:26:58;;;;;;;19.93;13.00;;;;;;;19.75;68.46;100094.38;5050386;28;20172;-64
2023/05/16 03:29:25;;;;;;;18.57;13.17;;;;;;;19.74;68.21;100087.00;5032136;28;20187;-65
2023/05/16 03:31:51;;;;;;;20.87;13.57;;;;;;;19.74;68.42;100087.00;5048839;28;20548;-64
2023/05/16 03:34:16;;;;;;;20.17;13.00;;;;;;;19.75;68.36;100087.81;5031484;28;20452;-64
2023/05/16 03:36:42;;;;;;;22.97;13.80;;;;;;;19.76;68.44;100089.50;5048058;28;20195;-64
2023/05/16 03:39:07;;;;;;;22.50;14.77;;;;;;;19.75;68.38;100088.66;5015688;28;20187;-64
2023/05/16 03:41:33;;;;;;;25.07;13.17;;;;;;;19.74;68.43;100089.88;5023055;28;20171;-64
2023/05/16 03:43:59;;;;;;;21.40;14.63;;;;;;;19.74;68.43;100095.59;5048161;28;20187;-64
2023/05/16 03:46:25;;;;;;;17.47;13.03;;;;;;;19.74;68.23;100091.91;5029054;28;20806;-64
2023/05/16 03:48:50;;;;;;;19.40;12.80;;;;;;;19.73;68.31;100093.97;5028631;28;20187;-64
2023/05/16 03:51:16;;;;;;;21.80;13.80;;;;;;;19.74;68.46;100104.19;5014857;28;20183;-64
2023/05/16 03:53:41;;;;;;;21.33;14.03;;;;;;;19.74;68.44;100103.38;5014394;28;20203;-64
2023/05/16 03:56:07;;;;;;;20.00;12.60;;;;;;;19.75;68.36;100110.72;5048429;28;20202;-64
2023/05/16 03:58:32;;;;;;;20.00;12.93;;;;;;;19.73;68.38;100104.59;5048713;28;20171;-64
2023/05/16 04:00:58;;;;;;;21.63;14.10;;;;;;;19.73;68.51;100111.16;5048128;28;20195;-64
2023/05/16 04:03:27;;;;;;;18.73;12.70;;;;;;;19.74;68.55;100114.81;5048546;28;20152;-64
2023/05/16 04:05:54;;;;;;;21.87;14.03;;;;;;;19.74;68.39;100115.66;5047397;28;20207;-64
2023/05/16 04:08:19;;;;;;;21.97;13.40;;;;;;;19.73;68.22;100116.03;5047621;28;20794;-64
2023/05/16 04:10:45;;;;;;;18.20;12.83;;;;;;;19.73;68.17;100118.91;5048355;28;20501;-64
2023/05/16 04:13:10;;;;;;;20.50;12.80;;;;;;;19.73;68.53;100118.91;5049151;28;20265;-64
2023/05/16 04:15:36;;;;;;;19.37;12.90;;;;;;;19.72;68.44;100118.06;5048877;28;20644;-64
2023/05/16 04:18:02;;;;;;;18.63;12.80;;;;;;;19.73;68.48;100119.75;5049418;28;20175;-64
2023/05/16 04:20:27;;;;;;;20.53;13.00;;;;;;;19.73;68.39;100118.91;5048659;28;20168;-64
2023/05/16 04:22:53;;;;;;;21.07;13.40;;;;;;;19.72;68.49;100120.13;5047802;28;20430;-64
2023/05/16 04:25:18;;;;;;;18.57;12.90;;;;;;;19.72;68.39;100125.84;5047109;28;20962;-64
2023/05/16 04:27:43;;;;;;;19.90;13.60;;;;;;;19.72;68.39;100134.47;5040155;28;20187;-64
2023/05/16 04:30:10;;;;;;;16.57;12.53;;;;;;;19.71;68.45;100124.22;5047538;28;20198;-64
2023/05/16 04:32:36;;;;;;;19.90;13.30;;;;;;;19.71;68.47;100133.63;5047177;28;20278;-64
2023/05/16 04:35:02;;;;;;;20.80;13.53;;;;;;;19.71;68.52;100132.81;5046820;28;20446;-65
2023/05/16 04:37:27;;;;;;;18.50;12.80;;;;;;;19.70;68.43;100131.97;5029783;28;20570;-64
2023/05/16 04:39:53;;;;;;;21.17;12.43;;;;;;;19.71;68.52;100132.81;5046473;28;20183;-64
2023/05/16 04:42:19;;;;;;;17.70;11.77;;;;;;;19.71;68.43;100135.69;5048189;28;20172;-64
2023/05/16 04:44:46;;;;;;;18.13;12.30;;;;;;;19.70;68.35;100129.13;5048503;28;20274;-64
2023/05/16 04:47:12;;;;;;;21.53;14.40;;;;;;;19.71;68.33;100129.94;5047546;28;20215;-64
2023/05/16 04:49:37;;;;;;;20.17;12.33;;;;;;;19.70;68.30;100129.13;5047460;28;20426;-64
2023/05/16 04:52:04;;;;;;;16.60;11.53;;;;;;;19.69;68.43;100135.22;5047326;28;20207;-64
2023/05/16 04:54:30;;;;;;;15.93;11.70;;;;;;;19.70;68.69;100134.00;5048117;28;20674;-64
2023/05/16 04:56:56;;;;;;;19.30;12.90;;;;;;;19.70;68.63;100136.88;5048023;28;20413;-64
2023/05/16 04:59:21;;;;;;;18.33;12.83;;;;;;;19.70;68.28;100142.59;5046997;28;20183;-64
2023/05/16 05:01:47;;;;;;;21.23;12.40;;;;;;;19.68;68.49;100145.88;5047192;28;20187;-64
2023/05/16 05:04:12;;;;;;;19.90;11.97;;;;;;;19.69;68.57;100143.81;5052846;28;20191;-64
2023/05/16 05:06:38;;;;;;;21.17;13.53;;;;;;;19.69;68.33;100144.66;5033396;28;20206;-64
2023/05/16 05:09:04;;;;;;;20.10;12.50;;;;;;;19.69;68.47;100149.56;5052545;28;20176;-64
2023/05/16 05:11:30;;;;;;;17.13;11.57;;;;;;;19.69;68.31;100143.81;5054553;28;20881;-64
2023/05/16 05:13:56;;;;;;;18.17;12.13;;;;;;;19.69;68.37;100155.28;5051425;28;20528;-64
2023/05/16 05:16:21;;;;;;;17.00;12.10;;;;;;;19.69;68.50;100153.25;5051834;28;20163;-64
2023/05/16 05:18:47;;;;;;;19.77;13.43;;;;;;;19.68;68.26;100160.19;5051603;28;20168;-64
2023/05/16 05:21:12;;;;;;;20.57;13.03;;;;;;;19.68;68.29;100163.06;5033475;28;20182;-64
2023/05/16 05:23:38;;;;;;;15.67;11.37;;;;;;;19.69;68.25;100163.88;5051567;28;20179;-64
2023/05/16 05:26:04;;;;;;;18.03;11.93;;;;;;;19.68;68.55;100168.78;5052097;28;20164;-64
2023/05/16 05:28:29;;;;;;;17.90;12.13;;;;;;;19.68;68.47;100163.06;5050497;28;20434;-64
2023/05/16 05:30:55;;;;;;;18.67;11.93;;;;;;;19.68;68.40;100171.66;5051032;28;20180;-64
2023/05/16 05:33:25;;;;;;;18.57;12.50;;;;;;;19.68;68.31;100165.09;5050291;28;20214;-64
2023/05/16 05:35:52;;;;;;;18.13;12.60;;;;;;;19.68;68.21;100168.78;5032763;28;20291;-64
2023/05/16 05:38:18;;;;;;;14.33;10.90;;;;;;;19.68;67.92;100167.97;5049305;28;20873;-64
2023/05/16 05:40:44;;;;;;;17.03;12.00;;;;;;;19.66;68.36;100164.66;5051035;28;20438;-64
2023/05/16 05:43:10;;;;;;;18.97;12.13;;;;;;;19.67;68.40;100167.13;5050029;28;20173;-64
2023/05/16 05:45:36;;;;;;;17.90;10.70;;;;;;;19.67;68.36;100157.72;5017060;28;20221;-64
2023/05/16 05:48:01;;;;;;;18.17;12.43;;;;;;;19.67;68.63;100164.25;5048395;28;20438;-64
2023/05/16 05:50:27;;;;;;;16.73;11.63;;;;;;;19.67;68.31;100166.31;5033932;28;20427;-64
2023/05/16 05:52:53;;;;;;;13.90;10.57;;;;;;;19.68;68.49;100170.81;5050985;28;20192;-64
2023/05/16 05:55:18;;;;;;;16.60;11.67;;;;;;;19.67;68.72;100172.03;5016604;28;20233;-64
2023/05/16 05:57:44;;;;;;;15.40;10.60;;;;;;;19.66;68.38;100176.13;5032317;28;20414;-64
2023/05/16 06:00:10;;;;;;;16.87;11.27;;;;;;;19.66;68.42;100168.34;5033052;28;20176;-64
2023/05/16 06:02:36;;;;;;;15.57;11.03;;;;;;;19.66;68.28;100176.94;5051626;28;20180;-64
2023/05/16 06:05:01;;;;;;;17.33;11.70;;;;;;;19.65;68.51;100175.28;5051455;28;20468;-64
2023/05/16 06:07:26;;;;;;;16.43;11.37;;;;;;;19.66;68.41;100185.53;5050486;28;20245;-64
2023/05/16 06:09:52;;;;;;;13.87;11.07;;;;;;;19.66;68.40;100176.94;5033440;28;20176;-64
2023/05/16 06:12:17;;;;;;;16.33;11.50;;;;;;;19.65;68.48;100181.03;5049624;28;20219;-64
2023/05/16 06:14:43;;;;;;;18.00;12.03;;;;;;;19.66;68.23;100193.31;5050235;28;20183;-64
2023/05/16 06:17:08;;;;;;;16.43;11.80;;;;;;;19.67;68.15;100189.22;5050314;28;20183;-64
2023/05/16 06:19:33;;;;;;;14.73;10.90;;;;;;;19.66;68.30;100187.59;5049800;28;20180;-64
2023/05/16 06:21:59;;;;;;;16.10;11.20;;;;;;;19.65;68.30;100188.78;5050573;28;20163;-64
2023/05/16 06:24:24;;;;;;;16.53;11.40;;;;;;;19.65;68.40;100191.63;5049346;28;20166;-64
2023/05/16 06:26:51;;;;;;;17.57;12.30;;;;;;;19.65;68.23;100198.22;5032182;28;20561;-64
2023/05/16 06:29:16;;;;;;;18.20;11.23;;;;;;;19.65;68.30;100198.22;5032200;28;20631;-64
2023/05/16 06:31:42;;;;;;;16.50;11.50;;;;;;;19.65;68.36;100192.47;5015477;28;20438;-64
2023/05/16 06:34:07;;;;;;;16.43;11.57;;;;;;;19.65;68.15;100201.06;5051404;28;20361;-65
2023/05/16 06:36:33;;;;;;;14.87;10.37;;;;;;;19.65;68.45;100200.22;5031099;28;20552;-65
2023/05/16 06:38:58;;;;;;;16.03;10.30;;;;;;;19.65;68.34;100203.09;5013213;28;20191;-64
2023/05/16 06:41:25;;;;;;;17.00;11.23;;;;;;;19.65;68.35;100203.94;5026394;28;20554;-64
2023/05/16 06:43:51;;;;;;;15.70;10.93;;;;;;;19.64;68.23;100210.88;5049852;28;20616;-64
2023/05/16 06:46:19;;;;;;;15.00;10.87;;;;;;;19.65;68.51;100209.66;5028307;28;20492;-64
2023/05/16 06:48:44;;;;;;;18.50;11.57;;;;;;;19.64;67.69;100219.47;5030507;28;20175;-64
2023/05/16 06:51:10;;;;;;;13.13;9.63;;;;;;;19.63;68.26;100212.09;5049414;28;20437;-64
2023/05/16 06:53:36;;;;;;;14.17;10.03;;;;;;;19.64;68.28;100218.63;5019890;28;20201;-64
2023/05/16 06:56:01;;;;;;;14.90;11.13;;;;;;;19.63;68.21;100217.84;5037522;28;20183;-64
2023/05/16 06:58:27;;;;;;;16.00;10.70;;;;;;;19.63;68.39;100223.56;5041192;28;20203;-64
2023/05/16 07:00:52;;;;;;;14.07;10.10;;;;;;;19.63;68.24;100229.28;5048731;28;20199;-64
2023/05/16 07:03:18;;;;;;;14.20;10.73;;;;;;;19.63;68.23;100229.28;5048782;28;20175;-64
2023/05/16 07:05:43;;;;;;;14.93;11.00;;;;;;;19.63;68.48;100229.28;5022021;28;20219;-64
2023/05/16 07:08:11;;;;;;;16.53;11.00;;;;;;;19.64;68.36;100238.69;5043080;28;20192;-64
2023/05/16 07:10:36;;;;;;;13.93;10.27;;;;;;;19.63;68.30;100237.88;5029041;28;20633;-64
2023/05/16 07:13:03;;;;;;;14.20;10.00;;;;;;;19.63;68.27;100232.16;5033521;28;20488;-64
2023/05/16 07:15:29;;;;;;;15.23;10.60;;;;;;;19.63;68.62;100237.88;5049287;28;20164;-64
2023/05/16 07:17:54;;;;;;;13.60;10.40;;;;;;;19.62;68.53;100238.25;5029870;28;20457;-64
2023/05/16 07:20:20;;;;;;;14.33;10.03;;;;;;;19.63;68.17;100234.19;5038329;28;20238;-64
2023/05/16 07:22:45;;;;;;;14.07;9.60;;;;;;;19.63;68.10;100234.19;5041540;28;20184;-64
2023/05/16 07:25:13;;;;;;;16.47;9.87;;;;;;;19.62;68.24;100239.06;5026158;28;20536;-64
2023/05/16 07:27:43;;;;;;;14.50;10.30;;;;;;;19.62;68.24;100244.81;5022518;28;20191;-64
2023/05/16 07:30:11;;;;;;;14.67;9.93;;;;;;;19.63;68.34;100246.47;5045021;28;20434;-64
2023/05/16 07:32:37;;;;;;;14.73;10.00;;;;;;;19.62;68.34;100238.25;5036789;28;21050;-64
2023/05/16 07:35:03;;;;;;;14.50;9.47;;;;;;;19.62;68.20;100255.44;5043908;28;20437;-64
2023/05/16 07:37:28;;;;;;;14.17;10.70;;;;;;;19.61;68.38;100248.88;5042116;28;20184;-64
2023/05/16 07:39:53;;;;;;;16.67;11.20;;;;;;;19.61;68.35;100246.00;5020023;28;20175;-64
2023/05/16 07:42:19;;;;;;;15.23;10.00;;;;;;;19.59;68.45;100251.31;5044207;28;20238;-64
2023/05/16 07:44:44;;;;;;;14.40;10.00;;;;;;;19.61;68.37;100259.53;5044659;28;20191;-64
2023/05/16 07:47:10;;;;;;;14.70;10.00;;;;;;;19.59;68.14;100262.78;5040400;28;20229;-64
2023/05/16 07:49:35;;;;;;;14.07;9.80;;;;;;;19.61;68.17;100260.34;5047927;28;20183;-64
2023/05/16 07:52:00;;;;;;;17.53;10.00;;;;;;;19.60;68.18;100257.84;5018765;28;20239;-64
2023/05/16 07:54:26;;;;;;;14.77;10.57;;;;;;;19.60;68.40;100267.28;5027283;28;20169;-64
2023/05/16 07:56:51;;;;;;;12.43;9.63;;;;;;;19.59;68.52;100265.63;5030916;28;20184;-64
2023/05/16 07:59:17;;;;;;;15.27;10.10;;;;;;;19.59;68.22;100259.91;5043773;28;20184;-65
2023/05/16 08:01:42;;;;;;;16.03;10.67;;;;;;;19.60;68.36;100263.59;5044419;28;20195;-64
2023/05/16 08:04:08;;;;;;;12.17;8.93;;;;;;;19.60;68.27;100267.28;5034038;28;20183;-65
2023/05/16 08:06:33;;;;;;;12.20;9.27;;;;;;;19.60;68.18;100260.72;5032566;28;20202;-64
2023/05/16 08:08:59;;;;;;;14.30;9.30;;;;;;;19.59;68.35;100262.78;5049279;28;20184;-64
2023/05/16 08:11:24;;;;;;;14.40;10.30;;;;;;;19.59;68.34;100261.94;5040529;28;20226;-64
2023/05/16 08:13:49;;;;;;;13.83;10.07;;;;;;;19.59;68.24;100271.38;5041406;28;20253;-64
2023/05/16 08:16:15;;;;;;;12.90;9.20;;;;;;;19.60;68.11;100266.44;5041510;28;20194;-64
2023/05/16 08:18:41;;;;;;;16.97;10.73;;;;;;;19.59;68.07;100267.66;5023894;28;20176;-65
2023/05/16 08:21:07;;;;;;;14.50;10.40;;;;;;;19.59;68.12;100273.41;5034022;28;20181;-64
2023/05/16 08:23:33;;;;;;;11.50;8.47;;;;;;;19.58;68.04;100272.59;5029097;28;20465;-64
2023/05/16 08:25:59;;;;;;;13.03;8.90;;;;;;;19.58;68.18;100278.31;5039431;28;20437;-64
2023/05/16 08:28:24;;;;;;;12.10;9.13;;;;;;;19.59;68.10;100277.09;5050738;28;20896;-64
2023/05/16 08:30:50;;;;;;;17.80;11.23;;;;;;;19.51;67.48;100275.34;5048841;28;20215;-64
2023/05/16 08:33:15;;;;;;;15.20;10.80;;;;;;;19.51;67.89;100278.19;5035083;28;20211;-64
2023/05/16 08:35:44;;;;;;;19.53;14.30;;;;;;;19.52;68.14;100279.03;5036886;28;20184;-64
2023/05/16 08:38:09;;;;;;;26.40;17.40;;;;;;;19.59;70.33;100282.00;5035816;28;20641;-64
2023/05/16 08:40:35;;;;;;;22.37;15.00;;;;;;;19.69;68.42;100282.16;5046262;28;20519;-64
2023/05/16 08:43:00;;;;;;;21.50;14.63;;;;;;;19.95;67.93;100279.19;5014497;28;20714;-64
2023/05/16 08:45:26;;;;;;;29.93;16.10;;;;;;;20.14;68.46;100281.91;5036521;28;20168;-63
2023/05/16 08:47:53;;;;;;;23.63;15.70;;;;;;;20.20;68.74;100280.34;5046781;28;20180;-64
2023/05/16 08:50:19;;;;;;;21.60;15.67;;;;;;;20.31;67.47;100289.88;5037296;28;20187;-63
2023/05/16 08:52:44;;;;;;;24.43;16.00;;;;;;;20.35;67.22;100281.31;5040488;28;20470;-64
2023/05/16 08:55:10;;;;;;;23.87;17.80;;;;;;;20.46;67.37;100288.81;5033845;28;20189;-64
2023/05/16 08:57:36;;;;;;;24.87;16.13;;;;;;;20.48;67.09;100286.38;5019752;28;20899;-64
2023/05/16 09:00:10;;;;;;;28.47;16.53;;;;;;;20.52;67.10;100284.34;5027381;28;20620;-64
2023/05/16 09:02:37;;;;;;;28.27;19.30;;;;;;;20.57;67.46;100281.13;5030773;28;20344;-63
2023/05/16 09:05:02;;;;;;;33.27;17.30;;;;;;;20.52;67.38;100281.47;5020213;28;20442;-65
2023/05/16 09:07:28;;;;;;;22.90;17.13;;;;;;;20.51;67.36;100282.72;5021908;28;20442;-65
2023/05/16 09:09:53;;;;;;;24.17;15.97;;;;;;;20.44;67.01;100291.25;5026934;28;20582;-64
2023/05/16 09:12:19;;;;;;;23.63;16.00;;;;;;;20.52;67.75;100286.41;5038905;28;20235;-64
2023/05/16 09:14:46;;;;;;;24.67;15.30;;;;;;;20.52;68.41;100287.22;5025994;28;20267;-65
2023/05/16 09:17:11;;;;;;;21.10;13.93;;;;;;;20.54;67.98;100289.69;5041713;28;20193;-64
2023/05/16 09:19:40;;;;;;;21.27;14.00;;;;;;;20.54;68.13;100290.53;5046309;28;20438;-64
2023/05/16 09:22:08;;;;;;;19.90;13.00;;;;;;;20.59;68.03;100295.06;5026284;28;20262;-65
2023/05/16 09:24:37;;;;;;;21.00;12.57;;;;;;;20.61;67.63;100279.13;5018210;28;20493;-64
2023/05/16 09:27:13;;;;;;;18.30;12.27;;;;;;;20.63;68.22;100285.28;5043603;28;21107;-64
2023/05/16 09:29:42;;;;;;;16.20;11.33;;;;;;;20.54;69.33;100283.97;5002103;28;20480;-64
2023/05/16 09:32:09;;;;;;;16.60;10.87;;;;;;;20.55;69.04;100292.19;5035536;28;20466;-64
2023/05/16 09:34:48;;;;;;;17.17;12.17;;;;;;;20.65;68.94;100290.63;5011666;28;20468;-64
2023/05/16 09:37:19;;;;;;;16.70;10.57;;;;;;;20.69;68.90;100288.63;5043618;28;20429;-64
2023/05/16 09:39:49;;;;;;;19.83;11.30;;;;;;;20.65;68.37;100291.47;5020874;28;20460;-64
2023/05/16 09:42:15;;;;;;;15.33;10.40;;;;;;;20.67;69.08;100294.75;5041768;28;20507;-64
2023/05/16 09:44:50;;;;;;;16.57;9.63;;;;;;;20.66;69.22;100301.69;5027058;28;21036;-64
2023/05/16 09:47:17;;;;;;;12.73;9.37;;;;;;;20.62;70.24;100306.56;5040628;28;20453;-63
2023/05/16 09:49:43;;;;;;;14.80;9.60;;;;;;;20.68;70.50;100290.66;5046302;28;20441;-63
2023/05/16 09:52:09;;;;;;;13.60;9.07;;;;;;;20.76;69.88;100305.88;5041315;28;20466;-64
2023/05/16 09:54:34;;;;;;;12.70;8.63;;;;;;;20.69;69.91;100300.94;4997993;28;20461;-64
2023/05/16 09:57:00;;;;;;;11.13;8.40;;;;;;;20.69;69.62;100306.66;5029172;28;20191;-64
2023/05/16 09:59:29;;;;;;;14.47;8.20;;;;;;;20.70;70.14;100302.56;5044413;28;20191;-64
2023/05/16 10:01:56;;;;;;;13.40;8.97;;;;;;;20.64;70.67;100314.78;5026492;28;20184;-63
2023/05/16 10:04:21;;;;;;;13.13;8.40;;;;;;;20.61;70.73;100302.06;5013293;28;20418;-63
2023/05/16 10:06:47;;;;;;;15.40;9.17;;;;;;;20.64;70.54;100303.31;5017459;28;20895;-64
2023/05/16 10:09:13;;;;;;;20.87;8.63;;;;;;;20.64;70.34;100315.63;5049407;28;20179;-64
2023/05/16 10:11:42;;;;;;;11.87;7.27;;;;;;;20.64;70.22;100311.94;5030404;28;20984;-64
2023/05/16 10:14:10;;;;;;;9.97;6.80;;;;;;;20.62;70.37;100312.31;5028793;28;20188;-64
2023/05/16 10:16:36;;;;;;;12.83;7.50;;;;;;;20.61;69.98;100321.31;5025886;28;20446;-64
2023/05/16 10:19:02;;;;;;;13.07;7.43;;;;;;;20.57;69.77;100315.53;5017182;28;20435;-64
2023/05/16 10:21:28;;;;;;;10.10;7.13;;;;;;;20.58;69.47;100320.06;5027420;28;20249;-64
2023/05/16 10:23:53;;;;;;;12.20;6.47;;;;;;;20.56;69.73;100318.78;5026252;28;20426;-64
2023/05/16 10:26:20;;;;;;;11.47;8.20;;;;;;;20.59;69.28;100318.84;5007809;28;20454;-64
2023/05/16 10:28:45;;;;;;;12.20;6.80;;;;;;;20.56;69.49;100316.75;5025399;28;20556;-64
2023/05/16 10:31:11;;;;;;;14.23;6.43;;;;;;;20.55;69.17;100320.84;5029451;28;20446;-64
2023/05/16 10:33:37;;;;;;;9.30;6.20;;;;;;;20.55;69.44;100329.47;5012802;28;20580;-64
2023/05/16 10:36:04;;;;;;;10.43;7.03;;;;;;;20.52;69.65;100327.38;5012157;28;20238;-63
2023/05/16 10:38:29;;;;;;;8.10;5.83;;;;;;;20.53;69.84;100329.00;5049790;28;20426;-64
2023/05/16 10:40:55;;;;;;;10.97;6.73;;;;;;;20.54;69.88;100332.72;5015902;28;20850;-63
2023/05/16 10:43:29;;;;;;;9.63;6.80;;;;;;;20.56;70.09;100336.84;5050275;28;20196;-63
2023/05/16 10:46:13;;;;;;;12.90;6.87;;;;;;;20.58;70.14;100331.53;5031849;28;20184;-63
2023/05/16 10:48:39;;;;;;;8.67;6.23;;;;;;;20.58;70.04;100334.41;5027428;28;20441;-63
2023/05/16 10:51:34;;;;;;;7.57;6.10;;;;;;;20.58;70.01;100343.00;5028236;28;20897;-64
2023/05/16 10:54:10;;;;;;;9.43;6.07;;;;;;;20.59;70.34;100346.72;5031097;28;20466;-63
2023/05/16 10:56:35;;;;;;;9.13;6.37;;;;;;;20.59;69.93;100336.06;5029537;28;20600;-63
2023/05/16 10:59:01;;;;;;;8.73;6.70;;;;;;;20.61;70.17;100336.50;5017533;28;20439;-63
2023/05/16 11:01:30;;;;;;;8.60;5.87;;;;;;;20.61;70.12;100333.63;5021706;28;20218;-63
2023/05/16 11:03:55;;;;;;;8.90;6.30;;;;;;;20.63;69.93;100336.09;5033906;28;20493;-63
2023/05/16 11:06:22;;;;;;;8.83;6.00;;;;;;;20.64;69.96;100344.31;5039083;28;20447;-63
2023/05/16 11:09:25;;;;;;;8.60;5.73;;;;;;;20.66;69.67;100339.00;5022309;28;20191;-63
2023/05/16 11:11:50;;;;;;;9.90;6.00;;;;;;;20.63;70.16;100334.03;5037461;28;20499;-63